Time;durP1;ratioP1;P1;durP2;ratioP2;P2;SDS_P1;SDS_P2;PMS_P1;PMS_P2;Temp;Humidity;BMP_temperature;BMP_pressure;BME280_temperature;BME280_humidity;BME280_pressure;Samples;Min_cycle;Max_cycle;Signal;HPM_P1;HPM_P2
2022/05/28 00:00:07;;;;;;;5.15;2.63;;;15.80;91.90;;;;;;5028939;28;20228;-34
2022/05/28 00:02:39;;;;;;;6.10;2.75;;;15.70;91.90;;;;;;5028989;28;20243;-34
2022/05/28 00:05:07;;;;;;;10.65;2.90;;;15.70;91.90;;;;;;5032882;28;20518;-34
2022/05/28 00:07:34;;;;;;;5.60;2.75;;;15.70;91.90;;;;;;5056718;28;20200;-39
2022/05/28 00:10:05;;;;;;;9.52;2.67;;;15.70;92.00;;;;;;5048994;28;20203;-39
2022/05/28 00:12:32;;;;;;;7.03;3.00;;;15.70;91.90;;;;;;5049170;28;20220;-39
2022/05/28 00:14:59;;;;;;;6.25;3.00;;;15.60;91.90;;;;;;5046862;28;20238;-39
2022/05/28 00:17:26;;;;;;;8.40;3.08;;;15.60;91.90;;;;;;5048693;28;20304;-39
2022/05/28 00:19:54;;;;;;;7.20;2.78;;;15.60;92.00;;;;;;5048041;28;20568;-39
2022/05/28 00:22:21;;;;;;;7.18;2.88;;;15.50;91.90;;;;;;5042126;28;20204;-39
2022/05/28 00:24:48;;;;;;;6.78;2.83;;;15.50;92.00;;;;;;5045362;28;20243;-39
2022/05/28 00:27:18;;;;;;;8.40;3.00;;;15.50;91.90;;;;;;5048937;28;20289;-39
2022/05/28 00:29:47;;;;;;;11.00;2.72;;;15.40;92.00;;;;;;5048374;28;20208;-39
2022/05/28 00:32:14;;;;;;;11.00;3.20;;;15.40;92.00;;;;;;5047972;28;20202;-39
2022/05/28 00:34:42;;;;;;;7.25;2.60;;;15.30;92.00;;;;;;5047835;28;20216;-39
2022/05/28 00:37:09;;;;;;;6.95;2.80;;;15.30;92.00;;;;;;5029366;28;20304;-39
2022/05/28 00:39:38;;;;;;;7.20;2.90;;;15.20;92.00;;;;;;5030843;28;20279;-39
2022/05/28 00:42:06;;;;;;;9.25;3.08;;;15.20;92.10;;;;;;5028247;28;20679;-39
2022/05/28 00:44:33;;;;;;;6.97;2.50;;;15.20;92.10;;;;;;5027869;28;20319;-39
2022/05/28 00:47:00;;;;;;;8.10;3.17;;;15.10;92.10;;;;;;5028504;28;20232;-39
2022/05/28 00:49:30;;;;;;;9.73;3.03;;;15.10;92.10;;;;;;5027868;28;20375;-39
2022/05/28 00:52:00;;;;;;;6.15;2.58;;;15.00;92.10;;;;;;5028616;28;20842;-39
2022/05/28 00:54:37;;;;;;;9.43;2.97;;;15.00;92.20;;;;;;5048001;28;20208;-39
2022/05/28 00:57:05;;;;;;;8.73;2.55;;;15.00;92.20;;;;;;5036268;28;20240;-39
2022/05/28 00:59:33;;;;;;;9.65;2.92;;;14.90;92.20;;;;;;5031586;28;20286;-39
2022/05/28 01:02:28;;;;;;;6.57;3.00;;;14.90;92.20;;;;;;5047792;28;20197;-39
2022/05/28 01:05:26;;;;;;;8.18;2.80;;;14.90;92.20;;;;;;5047467;28;20232;-39
2022/05/28 01:08:00;;;;;;;5.43;2.85;;;14.80;92.20;;;;;;5053858;28;20730;-39
2022/05/28 01:10:33;;;;;;;9.77;3.30;;;14.80;92.10;;;;;;5028594;28;20228;-40
2022/05/28 01:13:03;;;;;;;8.38;2.90;;;14.70;92.20;;;;;;5046522;28;20205;-39
2022/05/28 01:15:36;;;;;;;10.15;2.90;;;14.70;92.20;;;;;;5048030;28;20211;-39
2022/05/28 01:18:27;;;;;;;8.20;3.20;;;14.60;92.20;;;;;;5047690;28;20302;-39
2022/05/28 01:21:00;;;;;;;7.30;3.10;;;14.60;92.30;;;;;;5047689;28;20590;-39
2022/05/28 01:23:33;;;;;;;8.38;2.67;;;14.50;92.20;;;;;;5047697;28;20215;-39
2022/05/28 01:26:26;;;;;;;6.55;2.75;;;14.50;92.20;;;;;;5047355;28;20212;-39
2022/05/28 01:29:04;;;;;;;10.57;3.33;;;14.50;92.50;;;;;;5047183;28;20638;-39
2022/05/28 01:31:33;;;;;;;8.55;2.83;;;14.40;92.30;;;;;;5046802;28;20204;-39
2022/05/28 01:34:03;;;;;;;8.60;3.05;;;14.40;92.20;;;;;;5046581;28;20200;-39
2022/05/28 01:36:32;;;;;;;11.73;3.35;;;14.40;92.20;;;;;;5047182;28;20350;-39
2022/05/28 01:39:00;;;;;;;7.80;2.75;;;14.30;92.20;;;;;;5037102;28;20645;-39
2022/05/28 01:41:31;;;;;;;8.38;3.03;;;14.30;92.30;;;;;;5027737;28;20237;-39
2022/05/28 01:44:00;;;;;;;9.10;2.90;;;14.20;92.20;;;;;;5028206;28;20221;-39
2022/05/28 01:46:29;;;;;;;7.35;3.13;;;14.20;92.20;;;;;;5030039;28;20635;-39
2022/05/28 01:48:58;;;;;;;8.55;3.00;;;14.20;92.20;;;;;;5050170;28;20218;-39
2022/05/28 01:51:30;;;;;;;7.28;3.05;;;14.20;92.30;;;;;;5051970;28;20789;-39
2022/05/28 01:54:07;;;;;;;6.90;2.88;;;14.10;92.30;;;;;;5052245;28;20219;-33
2022/05/28 01:56:36;;;;;;;5.85;2.45;;;14.10;92.20;;;;;;5051794;28;20287;-33
2022/05/28 01:59:04;;;;;;;10.48;3.22;;;14.10;92.30;;;;;;5050735;28;20666;-33
2022/05/28 02:01:32;;;;;;;7.90;3.17;;;14.10;92.30;;;;;;5050614;28;20303;-34
2022/05/28 02:04:06;;;;;;;6.78;3.00;;;14.00;92.30;;;;;;5045131;28;20598;-33
2022/05/28 02:06:35;;;;;;;10.75;3.38;;;14.00;92.40;;;;;;5034494;28;20196;-33
2022/05/28 02:09:11;;;;;;;7.32;2.97;;;14.00;92.30;;;;;;5048818;28;20227;-34
2022/05/28 02:11:59;;;;;;;9.05;2.90;;;14.00;92.50;;;;;;5031157;28;20213;-33
2022/05/28 02:14:46;;;;;;;9.77;2.80;;;13.90;92.50;;;;;;5030895;28;20297;-33
2022/05/28 02:17:35;;;;;;;9.18;2.90;;;13.90;92.40;;;;;;5031419;28;20236;-33
2022/05/28 02:20:17;;;;;;;7.95;2.90;;;13.90;92.50;;;;;;5030883;28;20630;-34
2022/05/28 02:23:18;;;;;;;9.65;2.83;;;13.80;92.30;;;;;;5031022;28;20629;-33
2022/05/28 02:25:58;;;;;;;8.40;2.92;;;13.80;92.50;;;;;;5030992;28;20243;-33
2022/05/28 02:28:27;;;;;;;8.15;3.10;;;13.80;92.40;;;;;;5030743;28;20237;-33
2022/05/28 02:31:02;;;;;;;6.75;3.78;;;13.80;92.40;;;;;;5031021;28;20575;-34
2022/05/28 02:33:32;;;;;;;10.80;3.10;;;13.80;92.50;;;;;;5030854;28;20299;-33
2022/05/28 02:36:01;;;;;;;8.13;3.22;;;13.80;92.40;;;;;;5046858;28;20204;-34
2022/05/28 02:38:29;;;;;;;8.35;3.10;;;13.80;92.40;;;;;;5048853;28;20310;-34
2022/05/28 02:40:57;;;;;;;11.27;3.15;;;13.80;92.40;;;;;;5050346;28;20236;-33
2022/05/28 02:43:25;;;;;;;9.70;3.20;;;13.70;92.40;;;;;;5050501;28;20297;-34
2022/05/28 02:45:52;;;;;;;10.30;3.10;;;13.70;92.50;;;;;;5049847;28;20304;-33
2022/05/28 02:48:19;;;;;;;7.65;2.97;;;13.70;92.40;;;;;;5050460;28;20196;-34
2022/05/28 02:50:47;;;;;;;9.93;3.25;;;13.70;92.50;;;;;;5050319;28;20621;-33
2022/05/28 02:53:14;;;;;;;7.97;3.28;;;13.70;92.50;;;;;;5031975;28;20204;-33
2022/05/28 02:55:44;;;;;;;8.30;3.05;;;13.60;92.50;;;;;;5038629;28;20228;-34
2022/05/28 02:58:13;;;;;;;7.40;3.45;;;13.60;92.50;;;;;;5048091;28;20641;-33
2022/05/28 03:00:41;;;;;;;8.50;2.75;;;13.60;92.50;;;;;;5050097;28;20676;-33
2022/05/28 03:03:08;;;;;;;8.07;3.33;;;13.60;92.60;;;;;;5049708;28;20682;-34
2022/05/28 03:05:38;;;;;;;10.43;3.25;;;13.50;92.60;;;;;;5048706;28;20299;-33
2022/05/28 03:08:05;;;;;;;6.88;3.17;;;13.50;92.60;;;;;;5064294;28;20763;-33
2022/05/28 03:10:34;;;;;;;9.85;3.00;;;13.50;92.70;;;;;;5030818;28;20740;-34
2022/05/28 03:13:01;;;;;;;7.55;2.95;;;13.50;92.60;;;;;;5033950;28;20239;-34
2022/05/28 03:15:29;;;;;;;9.75;3.30;;;13.50;92.60;;;;;;5029888;28;20193;-33
2022/05/28 03:17:59;;;;;;;8.52;2.90;;;13.40;92.60;;;;;;5029836;28;20216;-33
2022/05/28 03:20:30;;;;;;;8.93;3.10;;;13.40;92.60;;;;;;5029699;28;20215;-34
2022/05/28 03:22:58;;;;;;;7.65;3.13;;;13.40;92.60;;;;;;5030169;28;20300;-33
2022/05/28 03:25:26;;;;;;;7.93;3.35;;;13.40;92.70;;;;;;5030564;28;20215;-33
2022/05/28 03:27:53;;;;;;;9.70;2.67;;;13.40;92.60;;;;;;5029894;28;20229;-34
2022/05/28 03:30:22;;;;;;;12.20;3.45;;;13.40;92.70;;;;;;5043468;28;20252;-33
2022/05/28 03:32:49;;;;;;;6.45;2.85;;;13.30;92.60;;;;;;5049647;28;20210;-33
2022/05/28 03:35:19;;;;;;;5.50;3.08;;;13.30;92.60;;;;;;5049642;28;20282;-33
2022/05/28 03:37:46;;;;;;;9.43;2.97;;;13.30;92.60;;;;;;5048508;28;20311;-33
2022/05/28 03:40:13;;;;;;;8.40;3.00;;;13.30;92.70;;;;;;5029533;28;20296;-34
2022/05/28 03:42:40;;;;;;;7.93;3.03;;;13.30;92.70;;;;;;5030192;28;20224;-33
2022/05/28 03:45:08;;;;;;;8.35;3.00;;;13.20;93.00;;;;;;5029113;28;20229;-33
2022/05/28 03:47:35;;;;;;;7.65;2.65;;;13.20;92.70;;;;;;5045136;28;20216;-33
2022/05/28 03:50:03;;;;;;;7.28;2.95;;;13.20;92.70;;;;;;5049396;28;20672;-33
2022/05/28 03:52:30;;;;;;;8.30;2.70;;;13.20;92.70;;;;;;5049399;28;20613;-33
2022/05/28 03:55:00;;;;;;;8.30;3.03;;;13.20;93.20;;;;;;5049049;28;20678;-33
2022/05/28 03:57:32;;;;;;;7.18;2.95;;;13.20;92.80;;;;;;5049368;28;20652;-34
2022/05/28 04:00:00;;;;;;;9.48;3.15;;;13.20;93.00;;;;;;5040835;28;20304;-34
2022/05/28 04:02:28;;;;;;;7.22;2.80;;;13.20;92.90;;;;;;5028809;28;20205;-34
2022/05/28 04:04:57;;;;;;;9.50;3.40;;;13.20;92.90;;;;;;5048101;28;20239;-34
2022/05/28 04:07:25;;;;;;;10.85;3.00;;;13.20;92.90;;;;;;5048765;28;20658;-34
2022/05/28 04:09:52;;;;;;;7.60;2.90;;;13.20;92.90;;;;;;5049229;28;20295;-38
2022/05/28 04:12:19;;;;;;;6.38;2.80;;;13.20;93.00;;;;;;5048731;28;20638;-39
2022/05/28 04:14:48;;;;;;;6.85;2.60;;;13.20;92.90;;;;;;5048763;28;20212;-38
2022/05/28 04:17:16;;;;;;;8.82;3.13;;;13.20;93.00;;;;;;5047981;28;20698;-38
2022/05/28 04:19:48;;;;;;;7.95;3.13;;;13.20;93.10;;;;;;5047697;28;20767;-39
2022/05/28 04:22:18;;;;;;;6.93;3.22;;;13.20;93.10;;;;;;5028684;28;20295;-38
2022/05/28 04:24:45;;;;;;;7.10;2.90;;;13.30;93.10;;;;;;5028725;28;20731;-38
2022/05/28 04:27:12;;;;;;;10.73;3.10;;;13.30;93.10;;;;;;5028767;28;20255;-38
2022/05/28 04:29:42;;;;;;;6.80;2.78;;;13.30;93.20;;;;;;5028246;28;20201;-38
2022/05/28 04:32:09;;;;;;;6.47;2.80;;;13.30;93.20;;;;;;5028404;28;20204;-38
2022/05/28 04:34:39;;;;;;;9.38;3.63;;;13.30;93.30;;;;;;5029198;28;20219;-38
2022/05/28 04:37:06;;;;;;;8.98;3.08;;;13.30;93.30;;;;;;5032335;28;20211;-38
2022/05/28 04:39:34;;;;;;;10.02;3.55;;;13.40;93.30;;;;;;5032079;28;20709;-38
2022/05/28 04:42:01;;;;;;;10.13;3.35;;;13.40;93.40;;;;;;5028788;28;20201;-38
2022/05/28 04:44:31;;;;;;;10.85;3.75;;;13.40;93.40;;;;;;5027893;28;20711;-38
2022/05/28 04:46:58;;;;;;;10.13;3.28;;;13.50;93.50;;;;;;5028465;28;20637;-38
2022/05/28 04:49:25;;;;;;;10.13;3.08;;;13.50;93.40;;;;;;5027723;28;20626;-38
2022/05/28 04:51:52;;;;;;;11.73;3.03;;;13.50;93.40;;;;;;5029021;28;20697;-38
2022/05/28 04:54:22;;;;;;;16.00;3.65;;;13.60;93.50;;;;;;5032802;28;20208;-38
2022/05/28 04:56:49;;;;;;;9.00;2.83;;;13.60;93.50;;;;;;5048484;28;20240;-38
2022/05/28 04:59:16;;;;;;;9.73;3.13;;;13.70;93.50;;;;;;5047719;28;20207;-38
2022/05/28 05:01:46;;;;;;;8.43;3.00;;;13.80;93.70;;;;;;5047873;28;20239;-38
2022/05/28 05:04:13;;;;;;;7.43;2.63;;;13.90;93.60;;;;;;5047326;28;20339;-38
2022/05/28 05:06:41;;;;;;;9.02;2.90;;;13.90;93.60;;;;;;5051751;28;20223;-38
2022/05/28 05:09:10;;;;;;;10.05;3.00;;;14.00;93.70;;;;;;5032752;28;20263;-38
2022/05/28 05:11:37;;;;;;;7.97;3.28;;;14.10;93.70;;;;;;5033197;28;20196;-38
2022/05/28 05:14:07;;;;;;;11.23;3.63;;;14.20;93.80;;;;;;5047592;28;20242;-38
2022/05/28 05:16:34;;;;;;;6.22;2.42;;;14.30;93.90;;;;;;5047992;28;20204;-38
2022/05/28 05:19:02;;;;;;;10.88;3.55;;;14.30;93.80;;;;;;5046692;28;20258;-37
2022/05/28 05:21:31;;;;;;;9.60;2.95;;;14.40;93.90;;;;;;5047652;28;20266;-37
2022/05/28 05:23:59;;;;;;;13.50;3.33;;;14.50;94.00;;;;;;5047768;28;20302;-38
2022/05/28 05:26:26;;;;;;;6.93;2.13;;;14.60;94.00;;;;;;5028688;28;20219;-37
2022/05/28 05:28:56;;;;;;;10.40;2.83;;;14.70;94.20;;;;;;5037818;28;20290;-38
2022/05/28 05:31:23;;;;;;;10.02;2.50;;;14.70;94.10;;;;;;5047753;28;20220;-37
2022/05/28 05:33:50;;;;;;;6.97;2.20;;;14.80;94.10;;;;;;5047564;28;20706;-37
2022/05/28 05:36:17;;;;;;;8.13;2.75;;;14.80;94.10;;;;;;5047961;28;20201;-37
2022/05/28 05:38:45;;;;;;;7.53;2.45;;;14.90;94.20;;;;;;5050788;28;20575;-37
2022/05/28 05:41:12;;;;;;;9.95;2.55;;;15.00;94.20;;;;;;5064631;28;20984;-38
2022/05/28 05:43:40;;;;;;;7.35;2.65;;;15.00;94.40;;;;;;5027470;28;20210;-37
2022/05/28 05:46:08;;;;;;;8.02;2.63;;;15.10;94.30;;;;;;5040169;28;20207;-37
2022/05/28 05:48:36;;;;;;;14.43;2.45;;;15.10;94.40;;;;;;5047010;28;20287;-37
2022/05/28 05:51:07;;;;;;;7.22;2.47;;;15.20;94.40;;;;;;5047632;28;20192;-37
2022/05/28 05:53:35;;;;;;;5.85;2.13;;;15.20;94.40;;;;;;5047416;28;20200;-37
2022/05/28 05:56:03;;;;;;;6.53;2.35;;;15.30;94.40;;;;;;5047548;28;20639;-37
2022/05/28 05:58:34;;;;;;;7.93;2.40;;;15.30;94.50;;;;;;5046486;28;20218;-37
2022/05/28 06:01:03;;;;;;;9.98;2.58;;;15.40;94.60;;;;;;5047480;28;20223;-37
2022/05/28 06:03:31;;;;;;;6.45;2.10;;;15.40;94.60;;;;;;5031055;28;20251;-38
2022/05/28 06:06:00;;;;;;;9.85;2.50;;;15.50;94.70;;;;;;5034317;28;20275;-38
2022/05/28 06:08:27;;;;;;;7.65;2.47;;;15.50;94.70;;;;;;5051617;28;20215;-37
2022/05/28 06:10:55;;;;;;;8.10;2.70;;;15.60;94.80;;;;;;5061554;28;20266;-33
2022/05/28 06:13:23;;;;;;;7.07;2.30;;;15.60;94.80;;;;;;5027154;28;20699;-33
2022/05/28 06:15:52;;;;;;;8.10;1.77;;;15.70;94.90;;;;;;5027378;28;20212;-33
2022/05/28 06:18:20;;;;;;;7.30;2.17;;;15.70;95.00;;;;;;5027300;28;20240;-33
2022/05/28 06:20:49;;;;;;;7.15;2.15;;;15.70;94.90;;;;;;5045285;28;20201;-33
2022/05/28 06:23:18;;;;;;;5.90;1.90;;;15.70;95.00;;;;;;5047228;28;20655;-34
2022/05/28 06:25:45;;;;;;;7.80;2.20;;;15.80;95.00;;;;;;5047271;28;20258;-33
2022/05/28 06:28:12;;;;;;;8.23;2.25;;;15.80;95.00;;;;;;5047271;28;20200;-33
2022/05/28 06:30:43;;;;;;;6.63;2.20;;;15.90;95.10;;;;;;5047471;28;20218;-33
2022/05/28 06:33:11;;;;;;;7.88;2.42;;;15.90;95.10;;;;;;5049753;28;20212;-33
2022/05/28 06:35:39;;;;;;;9.02;1.80;;;15.90;95.10;;;;;;5050224;28;20227;-33
2022/05/28 06:38:06;;;;;;;8.38;1.77;;;16.00;95.10;;;;;;5041374;28;20731;-33
2022/05/28 06:40:39;;;;;;;11.43;2.03;;;16.00;95.10;;;;;;5070942;28;20207;-35
2022/05/28 06:43:06;;;;;;;12.70;2.97;;;16.00;95.30;;;;;;5052100;28;20625;-35
2022/05/28 06:45:33;;;;;;;11.52;2.83;;;16.10;95.30;;;;;;5050543;28;20224;-35
2022/05/28 06:48:00;;;;;;;8.98;2.10;;;16.10;95.30;;;;;;5050073;28;20205;-35
2022/05/28 06:53:13;;;;;;;7.50;1.83;;;16.20;95.30;;;;;;5035298;28;20307;-36
2022/05/28 06:55:43;;;;;;;5.90;1.85;;;16.20;95.50;;;;;;5050787;28;20298;-35
2022/05/28 06:58:10;;;;;;;7.07;1.73;;;16.20;95.40;;;;;;5050616;28;20678;-35
2022/05/28 07:00:38;;;;;;;9.60;1.80;;;16.20;95.40;;;;;;5050164;28;20224;-35
2022/05/28 07:03:06;;;;;;;4.60;1.48;;;16.20;95.30;;;;;;5049847;28;20231;-36
2022/05/28 07:05:35;;;;;;;6.00;1.92;;;16.30;95.40;;;;;;5049961;28;20230;-33
2022/05/28 07:08:08;;;;;;;8.77;2.38;;;16.30;95.40;;;;;;5047226;28;20219;-33
2022/05/28 07:10:39;;;;;;;14.05;2.22;;;16.40;95.40;;;;;;5030942;28;20197;-33
2022/05/28 07:13:06;;;;;;;6.28;1.80;;;16.40;95.40;;;;;;5046473;28;20257;-33
2022/05/28 07:15:35;;;;;;;10.18;2.00;;;16.50;95.40;;;;;;5030092;28;20217;-33
2022/05/28 07:18:03;;;;;;;8.93;1.80;;;16.50;95.40;;;;;;5029342;28;20205;-33
2022/05/28 07:20:31;;;;;;;5.75;1.88;;;16.50;95.40;;;;;;5029827;28;20736;-33
2022/05/28 07:23:12;;;;;;;5.47;1.52;;;16.60;95.50;;;;;;5029837;28;20630;-33
2022/05/28 07:25:41;;;;;;;6.78;1.63;;;16.70;95.50;;;;;;5029556;28;20256;-33
2022/05/28 07:28:25;;;;;;;10.90;1.98;;;16.70;95.50;;;;;;5042481;28;20208;-33
2022/05/28 07:31:03;;;;;;;6.07;1.73;;;16.70;95.90;;;;;;5048950;28;20196;-33
2022/05/28 07:33:36;;;;;;;6.13;1.70;;;16.70;95.60;;;;;;5049267;28;20650;-33
2022/05/28 07:36:05;;;;;;;5.32;1.52;;;16.80;95.60;;;;;;5049311;28;20214;-36
2022/05/28 07:38:37;;;;;;;4.63;1.50;;;16.80;95.60;;;;;;5056878;28;20200;-33
2022/05/28 07:41:14;;;;;;;6.45;1.92;;;16.90;95.70;;;;;;5051966;28;20239;-33
2022/05/28 07:43:42;;;;;;;6.88;1.50;;;17.00;95.70;;;;;;5047318;28;20307;-33
2022/05/28 07:46:13;;;;;;;7.53;1.48;;;17.10;95.80;;;;;;5029432;28;20922;-33
2022/05/28 07:48:41;;;;;;;5.82;1.60;;;17.20;95.80;;;;;;5029003;28;20201;-33
2022/05/28 07:51:08;;;;;;;7.20;1.63;;;17.20;95.90;;;;;;5029127;28;20201;-33
2022/05/28 07:53:37;;;;;;;4.55;1.42;;;17.30;95.50;;;;;;5029253;28;20240;-33
2022/05/28 07:56:05;;;;;;;4.10;1.00;;;17.30;95.50;;;;;;5029456;28;20548;-33
2022/05/28 07:58:33;;;;;;;4.53;1.10;;;17.30;95.50;;;;;;5029499;28;20706;-33
2022/05/28 08:01:04;;;;;;;2.65;0.82;;;17.30;95.30;;;;;;5032486;28;20670;-33
2022/05/28 08:03:34;;;;;;;4.35;0.88;;;17.30;95.30;;;;;;5047208;28;20607;-33
2022/05/28 08:06:05;;;;;;;3.17;0.80;;;17.30;95.40;;;;;;5048900;28;20535;-33
2022/05/28 08:08:35;;;;;;;3.67;0.98;;;17.40;95.50;;;;;;5053876;28;20223;-33
2022/05/28 08:11:04;;;;;;;4.00;1.73;;;17.40;95.50;;;;;;5059555;28;20223;-33
2022/05/28 08:13:31;;;;;;;10.07;2.08;;;17.50;95.50;;;;;;5028538;28;20291;-33
2022/05/28 08:16:00;;;;;;;8.60;2.60;;;17.60;95.60;;;;;;5027938;28;20219;-33
2022/05/28 08:18:30;;;;;;;4.40;2.20;;;17.60;95.70;;;;;;5038683;28;20315;-33
2022/05/28 08:23:47;;;;;;;7.97;2.25;;;17.70;95.80;;;;;;5048711;28;20204;-33
2022/05/28 08:26:19;;;;;;;7.38;1.67;;;17.70;95.80;;;;;;5048680;28;20220;-33
2022/05/28 08:28:47;;;;;;;11.07;2.40;;;17.70;95.80;;;;;;5047683;28;20216;-33
2022/05/28 08:31:16;;;;;;;4.22;1.85;;;17.80;95.90;;;;;;5046451;28;20200;-33
2022/05/28 08:33:43;;;;;;;6.80;1.48;;;17.80;95.90;;;;;;5028058;28;20208;-33
2022/05/28 08:36:11;;;;;;;5.75;1.65;;;17.90;95.90;;;;;;5039861;28;20307;-33
2022/05/28 08:38:39;;;;;;;3.78;1.00;;;17.90;95.90;;;;;;5058442;28;20215;-33
2022/05/28 08:41:41;;;;;;;6.38;0.98;;;18.00;95.80;;;;;;5047425;28;20212;-33
2022/05/28 08:44:15;;;;;;;3.63;1.33;;;18.00;95.80;;;;;;5047759;28;20647;-33
2022/05/28 08:46:44;;;;;;;2.45;0.88;;;18.00;95.70;;;;;;5048206;28;20740;-33
2022/05/28 08:49:14;;;;;;;8.10;1.15;;;18.00;95.60;;;;;;5047139;28;20196;-32
2022/05/28 08:51:44;;;;;;;5.18;1.23;;;18.10;95.40;;;;;;5047464;28;20214;-33
2022/05/28 08:54:23;;;;;;;4.28;1.00;;;18.20;95.00;;;;;;5027499;28;20620;-33
2022/05/28 08:56:57;;;;;;;3.03;1.20;;;18.20;95.50;;;;;;5028616;28;20291;-33
2022/05/28 08:59:32;;;;;;;4.05;0.93;;;18.20;95.40;;;;;;5027675;28;20197;-33
2022/05/28 09:02:10;;;;;;;3.70;1.08;;;18.30;95.50;;;;;;5027765;28;20243;-33
2022/05/28 09:04:42;;;;;;;5.05;1.30;;;18.30;95.20;;;;;;5027714;28;20588;-33
2022/05/28 09:07:14;;;;;;;6.53;1.45;;;18.40;95.30;;;;;;5028675;28;20223;-33
2022/05/28 09:09:46;;;;;;;4.03;1.40;;;18.40;95.40;;;;;;5028804;28;20663;-33
2022/05/28 09:12:30;;;;;;;5.45;1.08;;;18.40;95.60;;;;;;5026520;28;20311;-33
2022/05/28 09:14:57;;;;;;;3.72;0.90;;;18.50;95.60;;;;;;5026256;28;20196;-32
2022/05/28 09:17:32;;;;;;;4.18;1.00;;;18.50;95.50;;;;;;5027317;28;20209;-33
2022/05/28 09:20:21;;;;;;;3.92;1.00;;;18.50;95.50;;;;;;5027864;28;20215;-33
2022/05/28 09:22:49;;;;;;;2.42;1.15;;;18.50;95.50;;;;;;5028717;28;20208;-33
2022/05/28 09:25:21;;;;;;;3.35;1.00;;;18.50;95.30;;;;;;5033022;28;20637;-33
2022/05/28 09:28:04;;;;;;;3.58;0.98;;;18.50;95.30;;;;;;5039458;28;20208;-33
2022/05/28 09:30:54;;;;;;;3.42;0.95;;;18.50;95.00;;;;;;5047324;28;20227;-32
2022/05/28 09:33:33;;;;;;;6.38;1.60;;;18.50;95.30;;;;;;5046923;28;20246;-33
2022/05/28 09:36:19;;;;;;;4.57;1.50;;;18.40;95.50;;;;;;5047575;28;20557;-33
2022/05/28 09:39:07;;;;;;;4.95;1.27;;;18.40;95.20;;;;;;5056737;28;20219;-33
2022/05/28 09:42:04;;;;;;;6.85;1.50;;;18.40;94.90;;;;;;5027240;28;20205;-33
2022/05/28 09:44:31;;;;;;;4.88;1.08;;;18.40;95.00;;;;;;5027597;28;20212;-33
2022/05/28 09:47:16;;;;;;;5.45;1.40;;;18.40;95.10;;;;;;5027676;28;20752;-33
2022/05/28 09:49:50;;;;;;;4.70;1.55;;;18.40;94.90;;;;;;5027041;28;20689;-33
2022/05/28 09:52:29;;;;;;;3.22;0.82;;;18.40;94.50;;;;;;5025798;28;20189;-33
2022/05/28 09:55:19;;;;;;;2.70;0.93;;;18.40;94.60;;;;;;5027463;28;20205;-33
2022/05/28 09:57:59;;;;;;;4.00;0.75;;;18.40;94.40;;;;;;5027863;28;20263;-33
2022/05/28 10:00:26;;;;;;;3.28;1.00;;;18.40;94.30;;;;;;5033494;28;20210;-33
2022/05/28 10:05:54;;;;;;;3.60;1.00;;;18.40;94.30;;;;;;5047894;28;20232;-33
2022/05/28 10:08:30;;;;;;;4.40;0.80;;;18.40;94.20;;;;;;5051081;28;20298;-33
2022/05/28 10:11:02;;;;;;;2.85;1.00;;;18.40;94.20;;;;;;5050192;28;20284;-32
2022/05/28 10:13:40;;;;;;;4.10;1.08;;;18.30;93.80;;;;;;5031575;28;20213;-33
2022/05/28 10:16:10;;;;;;;1.90;0.70;;;18.40;94.10;;;;;;5031009;28;20236;-33
2022/05/28 10:18:58;;;;;;;3.78;1.10;;;18.40;93.90;;;;;;5030991;28;20204;-33
2022/05/28 10:21:37;;;;;;;3.17;0.70;;;18.50;93.90;;;;;;5030800;28;20697;-35
2022/05/28 10:24:13;;;;;;;3.05;0.82;;;18.60;94.00;;;;;;5030766;28;20303;-35
2022/05/28 10:26:48;;;;;;;4.80;0.98;;;18.60;94.00;;;;;;5030543;28;20228;-33
2022/05/28 10:29:38;;;;;;;4.00;0.90;;;18.60;93.60;;;;;;5030110;28;20206;-33
2022/05/28 10:32:26;;;;;;;4.85;1.83;;;18.50;93.60;;;;;;5031313;28;20220;-33
2022/05/28 10:35:15;;;;;;;2.88;1.10;;;18.50;93.40;;;;;;5040984;28;20210;-33
2022/05/28 10:37:45;;;;;;;2.30;0.80;;;18.40;93.10;;;;;;5052194;28;20193;-33
2022/05/28 10:40:22;;;;;;;2.65;0.80;;;18.40;93.80;;;;;;5042531;28;20193;-33
2022/05/28 10:42:55;;;;;;;3.05;0.90;;;18.40;93.80;;;;;;5044029;28;20199;-33
2022/05/28 10:45:26;;;;;;;3.65;0.77;;;18.40;93.20;;;;;;5050114;28;20216;-33
2022/05/28 10:48:05;;;;;;;4.53;0.85;;;18.40;93.30;;;;;;5042530;28;20259;-33
2022/05/28 10:51:15;;;;;;;6.30;1.77;;;18.40;93.80;;;;;;5030072;28;20705;-35
2022/05/28 10:54:23;;;;;;;1.88;0.77;;;18.50;93.80;;;;;;5050092;28;20196;-35
2022/05/28 10:57:16;;;;;;;2.20;0.65;;;18.60;94.10;;;;;;5057856;28;20759;-35
2022/05/28 11:00:03;;;;;;;1.45;0.65;;;18.70;93.90;;;;;;5049681;28;20686;-35
2022/05/28 11:02:42;;;;;;;2.47;0.60;;;18.70;93.40;;;;;;5049685;28;20708;-35
2022/05/28 11:05:28;;;;;;;1.35;0.60;;;18.70;93.90;;;;;;5048938;28;20739;-35
2022/05/28 11:08:40;;;;;;;5.65;0.90;;;18.80;93.50;;;;;;5047160;28;20204;-35
2022/05/28 11:11:29;;;;;;;2.20;0.77;;;18.70;92.80;;;;;;5033218;28;20275;-35
2022/05/28 11:14:22;;;;;;;3.78;0.80;;;18.70;93.10;;;;;;5049463;28;20247;-35
2022/05/28 11:16:55;;;;;;;2.55;0.80;;;18.70;93.00;;;;;;5048166;28;20728;-33
2022/05/28 11:19:44;;;;;;;3.10;0.98;;;18.80;93.10;;;;;;5047150;28;20215;-34
2022/05/28 11:22:17;;;;;;;3.58;0.90;;;18.80;92.70;;;;;;5048770;28;20224;-33
2022/05/28 11:24:55;;;;;;;2.55;0.75;;;18.80;93.20;;;;;;5048857;28;20231;-33
2022/05/28 11:27:47;;;;;;;2.00;0.77;;;18.80;92.60;;;;;;5029663;28;20317;-33
2022/05/28 11:30:26;;;;;;;1.80;0.60;;;18.80;92.90;;;;;;5029123;28;20204;-33
2022/05/28 11:33:12;;;;;;;2.58;0.90;;;18.80;92.90;;;;;;5028997;28;20391;-33
2022/05/28 11:36:00;;;;;;;4.25;0.70;;;18.80;92.50;;;;;;5029384;28;20240;-33
2022/05/28 11:38:33;;;;;;;2.90;0.73;;;18.70;92.80;;;;;;5037884;28;20671;-34
2022/05/28 11:41:20;;;;;;;3.10;0.90;;;18.80;92.20;;;;;;5029525;28;20212;-33
2022/05/28 11:44:08;;;;;;;3.35;0.93;;;18.80;92.30;;;;;;5046587;28;20494;-34
2022/05/28 11:46:48;;;;;;;3.40;1.00;;;18.80;91.80;;;;;;5048809;28;20701;-33
2022/05/28 11:52:56;;;;;;;2.72;0.70;;;18.90;92.70;;;;;;5048960;28;20322;-33
2022/05/28 11:55:28;;;;;;;3.00;0.68;;;19.00;92.50;;;;;;5045908;28;20283;-34
2022/05/28 11:58:08;;;;;;;1.55;0.70;;;19.00;92.10;;;;;;5029019;28;20758;-34
2022/05/28 12:00:40;;;;;;;2.53;0.60;;;19.00;91.90;;;;;;5044877;28;20290;-34
2022/05/28 12:03:19;;;;;;;3.95;0.73;;;19.00;91.50;;;;;;5048451;28;20672;-33
2022/05/28 12:06:02;;;;;;;3.55;0.93;;;19.00;92.00;;;;;;5048777;28;20623;-33
2022/05/28 12:08:43;;;;;;;3.28;0.88;;;19.10;92.30;;;;;;5048625;28;20226;-34
2022/05/28 12:11:19;;;;;;;3.20;0.90;;;19.10;92.00;;;;;;5045890;28;20207;-33
2022/05/28 12:13:49;;;;;;;2.88;0.90;;;19.20;91.80;;;;;;5047074;28;20214;-33
2022/05/28 12:16:22;;;;;;;2.92;0.80;;;19.10;92.00;;;;;;5043049;28;20216;-33
2022/05/28 12:19:01;;;;;;;3.33;1.08;;;19.20;92.50;;;;;;5027967;28;20319;-34
2022/05/28 12:21:34;;;;;;;4.82;0.90;;;19.30;92.60;;;;;;5028625;28;20288;-34
2022/05/28 12:24:22;;;;;;;2.50;0.75;;;19.30;91.90;;;;;;5028127;28;20209;-34
2022/05/28 12:29:47;;;;;;;2.60;0.85;;;19.50;92.00;;;;;;5028450;28;20217;-34
2022/05/28 12:32:20;;;;;;;1.75;0.55;;;19.50;91.80;;;;;;5028465;28;20231;-39
2022/05/28 12:35:17;;;;;;;5.40;1.13;;;19.50;91.80;;;;;;5046360;28;20306;-39
2022/05/28 12:38:15;;;;;;;3.13;0.95;;;19.40;90.80;;;;;;5050581;28;20228;-39
2022/05/28 12:40:54;;;;;;;3.50;0.70;;;19.40;91.50;;;;;;5055499;28;20727;-39
2022/05/28 12:43:33;;;;;;;4.18;1.08;;;19.40;91.90;;;;;;5048461;28;20208;-38
2022/05/28 12:46:18;;;;;;;2.95;0.82;;;19.40;92.00;;;;;;5047940;28;20234;-38
2022/05/28 12:48:51;;;;;;;4.32;1.25;;;19.50;92.40;;;;;;5027459;28;20200;-39
2022/05/28 12:51:49;;;;;;;2.15;0.95;;;19.50;92.40;;;;;;5029181;28;20236;-38
2022/05/28 12:54:33;;;;;;;3.25;1.02;;;19.60;92.30;;;;;;5028002;28;20589;-38
2022/05/28 12:57:24;;;;;;;4.25;0.90;;;19.60;91.70;;;;;;5030366;28;21490;-39
2022/05/28 13:00:26;;;;;;;3.65;1.02;;;19.60;91.50;;;;;;5036715;28;20223;-38
2022/05/28 13:02:57;;;;;;;3.97;1.60;;;19.70;92.40;;;;;;5047510;28;20210;-38
2022/05/28 13:05:38;;;;;;;1.98;0.60;;;19.70;91.60;;;;;;5028089;28;20237;-38
2022/05/28 13:08:17;;;;;;;4.05;0.77;;;19.80;91.70;;;;;;5030153;28;20240;-38
2022/05/28 13:11:06;;;;;;;2.63;0.75;;;19.80;91.70;;;;;;5030074;28;20765;-38
2022/05/28 13:14:06;;;;;;;3.55;0.90;;;19.80;92.10;;;;;;5027332;28;20204;-38
2022/05/28 13:17:04;;;;;;;3.40;0.90;;;19.80;92.10;;;;;;5027738;28;20200;-38
2022/05/28 13:19:46;;;;;;;3.00;0.80;;;19.80;91.50;;;;;;5027407;28;20205;-39
2022/05/28 13:22:41;;;;;;;2.45;0.60;;;19.80;91.70;;;;;;5045459;28;20303;-38
2022/05/28 13:25:49;;;;;;;2.30;0.60;;;19.80;91.80;;;;;;5034523;28;20286;-38
2022/05/28 13:28:37;;;;;;;1.17;0.47;;;19.80;91.00;;;;;;5027216;28;20205;-38
2022/05/28 13:31:10;;;;;;;2.83;0.70;;;19.80;91.00;;;;;;5027660;28;20327;-39
2022/05/28 13:33:39;;;;;;;3.97;0.70;;;19.80;90.50;;;;;;5025816;28;20209;-39